Time;durP1;ratioP1;P1;durP2;ratioP2;P2;SDS_P1;SDS_P2;PMS_P1;PMS_P2;Temp;Humidity;BMP_temperature;BMP_pressure;BME280_temperature;BME280_humidity;BME280_pressure;Samples;Min_cycle;Max_cycle;Signal;HPM_P1;HPM_P2
2023/07/11 00:00:17;;;;;;;8.32;7.93;;;;;;;22.00;100.00;151568.09;5052440;28;20193;-60
2023/07/11 00:02:48;;;;;;;8.38;7.88;;;;;;;22.05;100.00;151580.84;5052354;28;20555;-60
2023/07/11 00:05:18;;;;;;;9.27;8.52;;;;;;;22.11;100.00;151597.41;5052411;28;20579;-60
2023/07/11 00:07:46;;;;;;;8.90;8.40;;;;;;;22.17;100.00;151611.44;5052302;28;20651;-59
2023/07/11 00:10:15;;;;;;;7.93;7.63;;;;;;;22.20;100.00;151619.09;5052277;28;20268;-59
2023/07/11 00:12:42;;;;;;;8.52;8.15;;;;;;;22.22;100.00;151624.22;5052089;28;20189;-59
2023/07/11 00:15:12;;;;;;;7.65;7.13;;;;;;;22.09;100.00;151592.34;5051830;28;20205;-59
2023/07/11 00:17:40;;;;;;;8.07;7.47;;;;;;;21.96;100.00;151557.91;5051803;28;20182;-59
2023/07/11 00:20:09;;;;;;;8.35;7.68;;;;;;;21.87;100.00;151537.47;5052154;28;20189;-60
2023/07/11 00:22:37;;;;;;;7.90;7.60;;;;;;;21.28;100.00;151388.34;5051607;28;20185;-60
2023/07/11 00:25:05;;;;;;;8.77;8.07;;;;;;;21.46;100.00;151431.69;5052000;28;20632;-60
2023/07/11 00:27:32;;;;;;;8.02;7.43;;;;;;;21.49;100.00;151440.59;5051740;28;20197;-59
2023/07/11 00:29:59;;;;;;;8.73;7.57;;;;;;;21.51;100.00;151444.44;5051952;28;20188;-60
2023/07/11 00:32:26;;;;;;;8.88;8.10;;;;;;;21.45;100.00;151429.13;5052030;28;20246;-60
2023/07/11 00:34:53;;;;;;;8.20;7.72;;;;;;;21.46;100.00;151431.69;5051479;28;20210;-61
2023/07/11 00:37:20;;;;;;;8.98;8.18;;;;;;;21.56;100.00;151457.13;5051581;28;20212;-59
2023/07/11 00:39:49;;;;;;;8.35;7.78;;;;;;;21.65;100.00;151480.09;5051617;28;20193;-61
2023/07/11 00:42:15;;;;;;;8.43;7.75;;;;;;;21.65;100.00;151480.09;5051744;28;20197;-60
2023/07/11 00:44:56;;;;;;;7.93;7.50;;;;;;;21.52;100.00;151446.94;5051497;28;20233;-59
2023/07/11 00:47:25;;;;;;;7.50;7.10;;;;;;;21.61;100.00;151471.16;5051737;28;20572;-60
2023/07/11 00:49:55;;;;;;;8.35;7.57;;;;;;;21.40;100.00;151418.94;5051641;28;20189;-60
2023/07/11 00:52:23;;;;;;;8.50;7.72;;;;;;;21.28;100.00;151388.34;5051288;28;20185;-60
2023/07/11 00:54:55;;;;;;;8.57;7.90;;;;;;;21.42;100.00;151424.03;5051735;28;20702;-60
2023/07/11 00:57:24;;;;;;;8.35;7.78;;;;;;;21.40;100.00;151417.66;5051649;28;20268;-60
2023/07/11 00:59:52;;;;;;;7.43;7.03;;;;;;;21.17;100.00;151359.06;5051626;28;20182;-60
2023/07/11 01:02:22;;;;;;;8.50;8.05;;;;;;;21.24;100.00;151378.16;5051278;28;20239;-60
2023/07/11 01:04:50;;;;;;;11.38;10.30;;;;;;;21.28;100.00;151388.34;5051346;28;20188;-60
2023/07/11 01:07:20;;;;;;;8.75;8.00;;;;;;;21.02;100.00;151322.03;5051230;28;20190;-60
2023/07/11 01:09:47;;;;;;;9.55;8.95;;;;;;;20.76;100.00;151255.78;5051178;28;20189;-60
2023/07/11 01:12:17;;;;;;;13.32;12.20;;;;;;;21.08;100.00;151337.34;5051040;28;20197;-59
2023/07/11 01:14:46;;;;;;;15.38;14.10;;;;;;;21.00;100.00;151315.69;5051199;28;20205;-60
2023/07/11 01:17:29;;;;;;;14.52;13.20;;;;;;;20.98;100.00;151311.84;5051125;28;20188;-59
2023/07/11 01:19:57;;;;;;;13.63;12.90;;;;;;;20.99;100.00;151314.41;5049513;28;20640;-60
2023/07/11 01:22:27;;;;;;;13.82;12.07;;;;;;;20.94;100.00;151301.66;5051427;28;20189;-60
2023/07/11 01:24:59;;;;;;;14.30;13.10;;;;;;;20.98;100.00;151311.84;5051108;28;20192;-61
2023/07/11 01:27:26;;;;;;;15.93;14.32;;;;;;;20.94;100.00;151301.66;5051300;28;20190;-59
2023/07/11 01:29:53;;;;;;;16.10;14.70;;;;;;;20.76;100.00;151255.78;5051050;28;20192;-61
2023/07/11 01:32:20;;;;;;;17.15;15.45;;;;;;;20.71;100.00;151243.09;5051176;28;20205;-59
2023/07/11 01:34:47;;;;;;;16.30;14.60;;;;;;;20.82;100.00;151272.38;5053638;28;20571;-59
2023/07/11 01:37:14;;;;;;;16.00;14.15;;;;;;;20.82;100.00;151271.09;5055146;28;20185;-59
2023/07/11 01:39:43;;;;;;;20.80;15.20;;;;;;;20.82;100.00;151272.38;5055115;28;20200;-60
2023/07/11 01:42:10;;;;;;;15.50;12.90;;;;;;;20.66;100.00;151230.34;5054918;28;20196;-59
2023/07/11 01:44:40;;;;;;;12.38;11.35;;;;;;;20.80;100.00;151267.25;5054718;28;20225;-59
2023/07/11 01:47:08;;;;;;;12.07;11.10;;;;;;;20.71;100.00;151243.09;5054922;28;20567;-61
2023/07/11 01:49:35;;;;;;;12.23;11.32;;;;;;;20.43;100.00;151174.28;5054659;28;20192;-60
2023/07/11 01:52:07;;;;;;;12.60;11.70;;;;;;;20.43;100.00;151174.28;5054538;28;20189;-60
2023/07/11 01:54:34;;;;;;;12.27;11.43;;;;;;;20.46;100.00;151181.91;5054784;28;20591;-60
2023/07/11 01:57:02;;;;;;;13.10;10.50;;;;;;;20.56;100.00;151206.13;5054498;28;20189;-61
2023/07/11 01:59:30;;;;;;;10.27;9.48;;;;;;;20.57;100.00;151207.41;5054721;28;20555;-60
2023/07/11 02:01:57;;;;;;;10.75;10.15;;;;;;;20.58;100.00;151209.97;5054702;28;20192;-60
2023/07/11 02:04:24;;;;;;;11.15;10.30;;;;;;;20.51;100.00;151194.66;5054690;28;20554;-60
2023/07/11 02:06:52;;;;;;;10.18;9.48;;;;;;;20.52;100.00;151197.22;5054527;28;20177;-59
2023/07/11 02:09:20;;;;;;;10.85;9.90;;;;;;;20.48;100.00;151185.75;5054402;28;20194;-60
2023/07/11 02:11:48;;;;;;;12.65;11.52;;;;;;;20.35;100.00;151152.66;5054038;28;20201;-60
2023/07/11 02:14:19;;;;;;;14.45;10.55;;;;;;;20.30;100.00;151141.19;5054270;28;20189;-59
2023/07/11 02:16:46;;;;;;;11.75;11.15;;;;;;;20.10;100.00;151090.22;5054344;28;20228;-60
2023/07/11 02:19:14;;;;;;;10.90;10.15;;;;;;;20.09;100.00;151087.66;5054859;28;20685;-59
2023/07/11 02:21:41;;;;;;;11.43;10.50;;;;;;;20.12;100.00;151095.28;5053987;28;20208;-61
2023/07/11 02:24:10;;;;;;;12.02;11.20;;;;;;;20.07;100.00;151082.59;5054210;28;20563;-59
2023/07/11 02:26:37;;;;;;;10.77;9.93;;;;;;;20.20;100.00;151114.41;5054304;28;20666;-60
2023/07/11 02:29:04;;;;;;;11.33;10.50;;;;;;;20.03;100.00;151072.34;5053891;28;20189;-60
2023/07/11 02:31:33;;;;;;;12.35;11.07;;;;;;;20.12;100.00;151095.28;5054246;28;20192;-60
2023/07/11 02:34:00;;;;;;;12.35;11.13;;;;;;;20.08;100.00;151085.09;5053774;28;20193;-60
2023/07/11 02:36:28;;;;;;;12.53;10.87;;;;;;;20.22;100.00;151119.50;5053979;28;20201;-60
2023/07/11 02:38:55;;;;;;;13.10;11.73;;;;;;;20.22;100.00;151120.75;5054003;28;20189;-60
2023/07/11 02:41:22;;;;;;;11.82;10.63;;;;;;;20.23;100.00;151123.31;5054126;28;20537;-59
2023/07/11 02:43:49;;;;;;;12.73;11.52;;;;;;;20.27;100.00;151132.22;5053980;28;20568;-60
2023/07/11 02:46:16;;;;;;;13.20;11.77;;;;;;;20.32;100.00;151145.03;5053154;28;20229;-60
2023/07/11 02:48:45;;;;;;;12.20;11.38;;;;;;;20.22;100.00;151120.75;5053510;28;20215;-60
2023/07/11 02:51:12;;;;;;;11.40;10.32;;;;;;;20.19;100.00;151111.84;5053468;28;20221;-61
2023/07/11 02:53:38;;;;;;;14.87;10.97;;;;;;;20.17;100.00;151108.03;5053415;28;20198;-62
2023/07/11 02:56:06;;;;;;;11.65;11.10;;;;;;;20.25;100.00;151128.38;5053712;28;20694;-62
2023/07/11 02:58:33;;;;;;;13.38;11.45;;;;;;;20.26;100.00;151130.94;5053340;28;20190;-62
2023/07/11 03:01:01;;;;;;;14.48;12.75;;;;;;;20.29;100.00;151138.63;5053481;28;20289;-61
2023/07/11 03:03:28;;;;;;;16.77;14.20;;;;;;;20.32;100.00;151146.31;5053429;28;20197;-61
2023/07/11 03:05:57;;;;;;;15.23;13.13;;;;;;;20.34;100.00;151151.38;5053504;28;20182;-62
2023/07/11 03:08:25;;;;;;;16.40;13.43;;;;;;;20.41;100.00;151167.94;5053494;28;20695;-62
2023/07/11 03:10:52;;;;;;;15.82;13.20;;;;;;;20.56;100.00;151204.84;5053385;28;20185;-62
2023/07/11 03:13:19;;;;;;;14.40;13.40;;;;;;;20.55;100.00;151203.56;5053175;28;20200;-62
2023/07/11 03:15:46;;;;;;;14.85;13.00;;;;;;;20.68;100.00;151236.69;5053394;28;20283;-61
2023/07/11 03:18:14;;;;;;;19.48;12.85;;;;;;;20.80;100.00;151265.97;5053349;28;20196;-62
2023/07/11 03:20:42;;;;;;;14.18;12.80;;;;;;;20.95;100.00;151305.50;5053183;28;20655;-61
2023/07/11 03:23:13;;;;;;;15.70;11.73;;;;;;;21.57;100.00;151459.69;5052713;28;20185;-62
2023/07/11 03:25:40;;;;;;;12.50;11.70;;;;;;;21.97;100.00;151561.75;5053049;28;20193;-62
2023/07/11 03:28:07;;;;;;;13.50;12.18;;;;;;;22.21;100.00;151622.94;5052910;28;20190;-62
2023/07/11 03:30:35;;;;;;;16.98;11.43;;;;;;;22.61;100.00;151723.69;5052957;28;20691;-61
2023/07/11 03:33:02;;;;;;;14.27;12.07;;;;;;;22.49;100.00;151693.03;5053085;28;20185;-61
2023/07/11 03:35:29;;;;;;;13.65;11.25;;;;;;;22.50;100.00;151694.31;5052513;28;20213;-62
2023/07/11 03:37:56;;;;;;;12.25;11.30;;;;;;;22.23;100.00;151628.06;5052839;28;20193;-62
2023/07/11 03:40:24;;;;;;;11.45;10.63;;;;;;;22.24;100.00;151629.28;5052894;28;20185;-62
2023/07/11 03:42:51;;;;;;;11.07;10.20;;;;;;;22.49;100.00;151691.81;5052682;28;20622;-62
2023/07/11 03:45:18;;;;;;;11.73;10.60;;;;;;;22.61;100.00;151722.41;5052265;28;20237;-62
2023/07/11 03:47:45;;;;;;;10.27;9.65;;;;;;;22.74;100.00;151755.63;5052411;28;20201;-62
2023/07/11 03:50:12;;;;;;;10.90;9.90;;;;;;;22.84;100.00;151781.09;5052300;28;20185;-61
2023/07/11 03:52:42;;;;;;;9.98;9.13;;;;;;;22.91;100.00;151797.72;5052240;28;20192;-62
2023/07/11 03:55:10;;;;;;;9.93;8.73;;;;;;;23.03;100.00;151829.59;5052062;28;20240;-62
2023/07/11 03:57:38;;;;;;;8.77;8.10;;;;;;;23.28;100.00;151890.84;5051603;28;20642;-62
2023/07/11 04:00:06;;;;;;;9.55;8.38;;;;;;;23.50;100.00;151947.03;5052186;28;20237;-62
2023/07/11 04:02:33;;;;;;;9.15;8.02;;;;;;;23.71;100.00;152000.66;5051879;28;20189;-62
2023/07/11 04:04:59;;;;;;;8.52;7.90;;;;;;;23.83;100.00;152030.00;5052006;28;20297;-62
2023/07/11 04:07:26;;;;;;;8.30;7.72;;;;;;;23.99;100.00;152072.13;5052265;28;20185;-63
2023/07/11 04:09:53;;;;;;;13.25;7.55;;;;;;;24.24;100.00;152133.44;5052335;28;20178;-61
2023/07/11 04:12:20;;;;;;;9.68;9.07;;;;;;;24.30;100.00;152148.75;5051834;28;20188;-63
2023/07/11 04:14:48;;;;;;;9.13;8.43;;;;;;;24.12;100.00;152105.31;5052116;28;20190;-62
2023/07/11 04:17:15;;;;;;;9.32;8.00;;;;;;;24.19;100.00;152120.69;5051918;28;20214;-62
2023/07/11 04:19:42;;;;;;;8.75;8.45;;;;;;;24.17;100.00;152115.56;5051857;28;20192;-62
2023/07/11 04:22:09;;;;;;;9.77;8.98;;;;;;;24.19;100.00;152120.69;5051612;28;20197;-61
2023/07/11 04:24:35;;;;;;;8.65;8.10;;;;;;;24.55;100.00;152212.59;5052053;28;20628;-62
2023/07/11 04:27:02;;;;;;;9.50;8.68;;;;;;;24.74;100.00;152261.13;5051633;28;20192;-62
2023/07/11 04:29:29;;;;;;;12.57;8.13;;;;;;;24.96;100.00;152317.38;5051858;28;20540;-63
2023/07/11 04:31:58;;;;;;;11.82;8.32;;;;;;;25.14;100.00;152362.09;5051951;28;20201;-62
2023/07/11 04:34:25;;;;;;;11.15;8.57;;;;;;;25.27;100.00;152394.03;5051959;28;20711;-62
2023/07/11 04:36:51;;;;;;;9.52;8.85;;;;;;;25.48;100.00;152447.72;5051443;28;20210;-63
2023/07/11 04:39:19;;;;;;;12.57;8.88;;;;;;;25.69;100.00;152500.16;5051595;28;20185;-62
2023/07/11 04:41:46;;;;;;;11.43;10.43;;;;;;;25.97;100.00;152571.69;5051375;28;20203;-62
2023/07/11 04:44:13;;;;;;;11.32;8.57;;;;;;;26.20;100.00;152629.28;5051467;28;20207;-62
2023/07/11 04:46:40;;;;;;;11.98;8.38;;;;;;;26.29;100.00;152653.59;5051294;28;20181;-62
2023/07/11 04:49:08;;;;;;;9.27;7.85;;;;;;;26.33;100.00;152663.81;5051618;28;20567;-62
2023/07/11 04:51:35;;;;;;;10.77;8.60;;;;;;;26.39;100.00;152676.63;5051231;28;20182;-63
2023/07/11 04:54:02;;;;;;;8.68;7.95;;;;;;;26.52;100.00;152711.09;5051173;28;20186;-63
2023/07/11 04:56:29;;;;;;;9.95;8.35;;;;;;;26.36;100.00;152670.19;5051066;28;20248;-61
2023/07/11 04:58:56;;;;;;;13.63;7.93;;;;;;;26.41;100.00;152683.00;5050045;28;20185;-62
2023/07/11 05:01:23;;;;;;;9.80;8.60;;;;;;;26.41;100.00;152683.00;5051922;28;20186;-62
2023/07/11 05:03:50;;;;;;;11.32;8.90;;;;;;;26.26;100.00;152644.66;5052518;28;20235;-58
2023/07/11 05:06:18;;;;;;;9.48;8.25;;;;;;;26.41;100.00;152683.00;5052009;28;20240;-59
2023/07/11 05:08:45;;;;;;;15.55;8.70;;;;;;;26.58;100.00;152726.47;5054429;28;20196;-59
2023/07/11 05:11:14;;;;;;;8.73;7.95;;;;;;;26.52;100.00;152711.09;5056842;28;20185;-59
2023/07/11 05:13:42;;;;;;;10.85;8.75;;;;;;;26.70;100.00;152755.88;5057548;28;20189;-58
2023/07/11 05:16:12;;;;;;;13.68;8.40;;;;;;;27.14;100.00;152867.22;5056511;28;20217;-59
2023/07/11 05:18:40;;;;;;;22.02;9.35;;;;;;;27.41;100.00;152936.31;5056537;28;20219;-59
2023/07/11 05:21:09;;;;;;;13.05;8.73;;;;;;;27.64;100.00;152995.19;5056684;28;20228;-62
2023/07/11 05:23:38;;;;;;;8.13;7.50;;;;;;;27.74;100.00;153019.53;5058431;28;20207;-64
2023/07/11 05:26:05;;;;;;;25.23;21.42;;;;;;;27.88;100.00;153055.31;5058353;28;20612;-63
2023/07/11 05:28:33;;;;;;;10.32;8.23;;;;;;;27.83;100.00;153042.56;5058104;28;20281;-66
2023/07/11 05:31:02;;;;;;;8.15;7.53;;;;;;;28.15;100.00;153123.22;5057905;28;20181;-60
2023/07/11 05:33:30;;;;;;;9.73;7.00;;;;;;;28.25;100.00;153148.84;5057577;28;20189;-61
2023/07/11 05:36:31;;;;;;;8.35;7.20;;;;;;;28.34;100.00;153170.59;5057269;28;20186;-60
2023/07/11 05:39:00;;;;;;;9.13;8.30;;;;;;;28.26;100.00;153151.41;5056217;28;20189;-60
2023/07/11 05:41:27;;;;;;;8.57;7.95;;;;;;;28.14;100.00;153121.94;5057048;28;20645;-61
2023/07/11 05:43:55;;;;;;;8.27;7.60;;;;;;;28.08;100.00;153105.25;5056855;28;20643;-61
2023/07/11 05:46:23;;;;;;;8.55;8.00;;;;;;;28.04;100.00;153095.03;5056843;28;20232;-61
2023/07/11 05:48:50;;;;;;;9.13;8.40;;;;;;;28.36;100.00;153176.97;5057584;28;20188;-61
2023/07/11 05:51:18;;;;;;;9.57;8.80;;;;;;;28.64;100.00;153246.13;5056614;28;20196;-61
2023/07/11 05:53:45;;;;;;;16.15;7.82;;;;;;;28.92;100.00;153317.88;5056148;28;20189;-61
2023/07/11 05:56:16;;;;;;;10.32;7.88;;;;;;;29.13;100.00;153371.66;5056500;28;20298;-60
2023/07/11 05:58:44;;;;;;;10.25;9.13;;;;;;;29.61;100.00;153493.41;5057249;28;20186;-63
2023/07/11 06:01:12;;;;;;;14.77;9.77;;;;;;;29.47;100.00;153457.53;5055247;28;20205;-61
2023/07/11 06:03:41;;;;;;;13.50;7.95;;;;;;;29.79;100.00;153539.50;5054929;28;20193;-61
2023/07/11 06:06:09;;;;;;;15.60;7.85;;;;;;;29.82;100.00;153545.94;5055674;28;20185;-60
2023/07/11 06:08:36;;;;;;;9.20;8.40;;;;;;;29.83;100.00;153548.50;5054557;28;20239;-61
2023/07/11 06:11:05;;;;;;;15.88;7.78;;;;;;;29.97;100.00;153583.13;5054129;28;20285;-61
2023/07/11 06:13:35;;;;;;;9.25;8.45;;;;;;;29.85;100.00;153553.63;5054834;28;20189;-61
2023/07/11 06:16:05;;;;;;;9.93;7.82;;;;;;;29.93;100.00;153574.16;5054446;28;20193;-60
2023/07/11 06:18:36;;;;;;;7.65;7.10;;;;;;;29.91;99.08;153569.06;5054670;28;20623;-63
2023/07/11 06:21:04;;;;;;;17.42;7.88;;;;;;;30.30;96.43;153667.69;5053141;28;20192;-63
2023/07/11 06:23:33;;;;;;;8.38;7.57;;;;;;;30.59;93.85;153742.13;5066159;28;20626;-64
2023/07/11 06:26:00;;;;;;;8.23;7.50;;;;;;;30.91;90.31;153821.59;5073837;28;20185;-64
2023/07/11 06:28:28;;;;;;;11.00;7.13;;;;;;;31.64;87.41;154007.66;5074059;28;20184;-63
2023/07/11 06:30:58;;;;;;;12.35;7.72;;;;;;;32.07;84.84;154118.00;5074470;28;20193;-62
2023/07/11 06:33:26;;;;;;;9.30;7.63;;;;;;;31.94;83.15;154083.34;5074047;28;20761;-62
2023/07/11 06:35:53;;;;;;;7.82;7.18;;;;;;;32.69;78.84;154273.34;5073377;28;20188;-62
2023/07/11 06:38:20;;;;;;;7.93;7.47;;;;;;;32.92;75.17;154333.69;5073724;28;20205;-63
2023/07/11 06:40:51;;;;;;;7.75;7.05;;;;;;;32.97;75.05;154345.25;5074549;28;20212;-63
2023/07/11 06:43:25;;;;;;;12.00;7.47;;;;;;;32.94;74.43;154337.50;5073747;28;20207;-63
2023/07/11 06:46:01;;;;;;;8.27;7.53;;;;;;;33.00;73.75;154354.22;5073358;28;20322;-68
2023/07/11 06:48:30;;;;;;;9.77;7.45;;;;;;;32.66;77.49;154265.66;5073826;28;20246;-63
2023/07/11 06:50:59;;;;;;;7.43;7.13;;;;;;;33.63;71.68;154513.47;5074000;28;20281;-64
2023/07/11 06:53:31;;;;;;;12.38;8.07;;;;;;;33.83;69.14;154563.59;5074080;28;20181;-64
2023/07/11 06:55:58;;;;;;;8.63;7.80;;;;;;;34.13;66.38;154639.38;5073205;28;20189;-61
2023/07/11 06:58:25;;;;;;;10.80;8.10;;;;;;;33.92;67.10;154588.00;5073548;28;20579;-64
2023/07/11 07:00:57;;;;;;;8.13;7.45;;;;;;;34.05;66.49;154618.81;5073617;28;20181;-63
2023/07/11 07:03:26;;;;;;;10.00;8.00;;;;;;;33.73;67.55;154539.22;5074248;28;20583;-61
2023/07/11 07:05:54;;;;;;;9.23;8.25;;;;;;;33.15;70.18;154390.19;5074335;28;20581;-64
2023/07/11 07:08:23;;;;;;;10.02;7.15;;;;;;;32.46;74.78;154215.56;5074266;28;20185;-64
2023/07/11 07:10:54;;;;;;;9.30;7.90;;;;;;;32.57;76.61;154245.06;5072875;28;20185;-62
2023/07/11 07:13:22;;;;;;;6.90;6.60;;;;;;;32.53;76.78;154233.50;5073429;28;20188;-62
2023/07/11 07:15:51;;;;;;;8.20;7.50;;;;;;;33.00;75.20;154354.22;5075487;28;20189;-63
2023/07/11 07:18:18;;;;;;;7.60;6.70;;;;;;;33.23;73.78;154410.78;5076365;28;20201;-61
2023/07/11 07:20:47;;;;;;;10.43;8.50;;;;;;;33.33;72.06;154436.41;5073588;28;20185;-60
2023/07/11 07:23:15;;;;;;;7.30;6.82;;;;;;;33.13;70.95;154385.03;5073242;28;20183;-62
2023/07/11 07:25:49;;;;;;;7.68;6.95;;;;;;;33.00;72.09;154352.94;5073305;28;20535;-62
2023/07/11 07:28:16;;;;;;;6.55;5.82;;;;;;;32.94;72.52;154337.50;5072787;28;20180;-62
2023/07/11 07:30:46;;;;;;;11.00;8.13;;;;;;;32.90;72.53;154327.25;5073194;28;20200;-64
2023/07/11 07:33:13;;;;;;;9.10;8.50;;;;;;;32.86;73.70;154318.25;5073345;28;20192;-62
2023/07/11 07:35:40;;;;;;;8.05;7.63;;;;;;;32.97;73.08;154345.25;5073496;28;20193;-63
2023/07/11 07:38:09;;;;;;;15.48;6.72;;;;;;;33.10;70.21;154377.34;5072750;28;20204;-65
2023/07/11 07:40:39;;;;;;;8.27;7.28;;;;;;;33.00;71.04;154354.22;5073205;28;20213;-62
2023/07/11 07:43:06;;;;;;;7.82;6.68;;;;;;;32.89;69.58;154325.94;5072696;28;20601;-63
2023/07/11 07:45:33;;;;;;;7.30;6.80;;;;;;;32.92;70.59;154333.69;5072579;28;20232;-61
2023/07/11 07:47:59;;;;;;;7.38;7.00;;;;;;;32.89;69.62;154325.94;5073045;28;20674;-63
2023/07/11 07:50:26;;;;;;;11.60;7.13;;;;;;;32.60;72.88;154251.47;5072313;28;20185;-61
2023/07/11 07:52:53;;;;;;;7.55;6.93;;;;;;;33.01;72.58;154355.50;5072401;28;20184;-63
2023/07/11 07:55:21;;;;;;;7.43;6.72;;;;;;;33.00;67.02;154354.22;5072941;28;20293;-62
2023/07/11 07:57:48;;;;;;;7.20;6.13;;;;;;;32.89;64.10;154324.66;5072669;28;20224;-61
2023/07/11 08:00:16;;;;;;;7.65;5.47;;;;;;;33.04;63.96;154364.50;5072417;28;20196;-62
2023/07/11 08:02:44;;;;;;;9.07;7.57;;;;;;;33.07;68.06;154370.88;5072251;28;20211;-64
2023/07/11 08:05:12;;;;;;;16.92;7.57;;;;;;;33.26;66.32;154418.47;5071395;28;20207;-62
2023/07/11 08:07:41;;;;;;;7.40;6.75;;;;;;;33.33;65.46;154436.41;5070960;28;20200;-62
2023/07/11 08:10:08;;;;;;;8.40;6.95;;;;;;;33.29;65.93;154426.16;5073102;28;20184;-61
2023/07/11 08:12:37;;;;;;;8.20;7.13;;;;;;;33.19;64.53;154400.44;5072082;28;20536;-64
2023/07/11 08:15:05;;;;;;;9.52;6.82;;;;;;;33.40;65.34;154455.66;5071538;28;20193;-61
2023/07/11 08:17:32;;;;;;;8.13;7.38;;;;;;;33.80;61.34;154557.19;5071639;28;20231;-60
2023/07/11 08:19:59;;;;;;;7.88;6.70;;;;;;;33.71;61.19;154532.78;5071969;28;20203;-62
2023/07/11 08:22:26;;;;;;;7.07;6.57;;;;;;;33.71;60.47;154534.06;5071892;28;20302;-63
2023/07/11 08:24:53;;;;;;;9.98;6.32;;;;;;;33.48;60.22;154474.97;5072518;28;20261;-61
2023/07/11 08:27:20;;;;;;;6.95;6.43;;;;;;;33.42;61.83;154459.53;5072329;28;20284;-62
2023/07/11 08:29:48;;;;;;;6.28;5.78;;;;;;;33.57;61.33;154498.03;5072703;28;20189;-61
2023/07/11 08:32:16;;;;;;;6.72;6.10;;;;;;;33.53;60.16;154489.06;5072656;28;20193;-62
2023/07/11 08:34:43;;;;;;;6.70;6.35;;;;;;;33.34;59.64;154439.00;5072209;28;20185;-63
2023/07/11 08:37:10;;;;;;;6.63;6.25;;;;;;;33.08;61.22;154374.75;5071999;28;20212;-64
2023/07/11 08:39:37;;;;;;;6.63;6.13;;;;;;;33.16;60.75;154392.75;5072395;28;20268;-63
2023/07/11 08:42:15;;;;;;;6.03;5.68;;;;;;;33.47;58.36;154472.38;5072162;28;20188;-60
2023/07/11 08:44:46;;;;;;;6.50;5.90;;;;;;;32.88;58.85;154323.44;5071967;28;20721;-63
2023/07/11 08:47:20;;;;;;;6.53;6.03;;;;;;;33.27;58.43;154421.03;5071609;28;20192;-63
2023/07/11 08:49:51;;;;;;;8.15;6.45;;;;;;;33.61;59.13;154508.31;5071223;28;20574;-63
2023/07/11 08:52:21;;;;;;;6.55;5.90;;;;;;;34.08;56.16;154626.50;5071539;28;20195;-64
2023/07/11 08:54:53;;;;;;;6.35;5.95;;;;;;;34.34;53.99;154694.66;5071254;28;20185;-62
2023/07/11 08:57:23;;;;;;;6.20;5.80;;;;;;;34.74;54.74;154796.22;5071750;28;20200;-64
2023/07/11 09:00:05;;;;;;;9.30;6.05;;;;;;;34.75;52.02;154797.50;5071456;28;20219;-65
2023/07/11 09:02:41;;;;;;;6.28;5.97;;;;;;;34.60;52.36;154760.19;5071162;28;20620;-63
2023/07/11 09:05:16;;;;;;;6.57;6.15;;;;;;;34.47;52.67;154725.47;5071799;28;20604;-62
2023/07/11 09:07:45;;;;;;;7.25;6.65;;;;;;;34.73;52.13;154793.66;5070915;28;20214;-62
2023/07/11 09:10:28;;;;;;;7.15;6.65;;;;;;;34.63;52.10;154766.63;5071746;28;20195;-62
2023/07/11 09:13:03;;;;;;;6.45;6.10;;;;;;;34.17;54.20;154650.97;5071076;28;20207;-66
2023/07/11 09:15:36;;;;;;;8.85;5.95;;;;;;;34.10;52.76;154632.97;5071415;28;20649;-62
2023/07/11 09:18:14;;;;;;;5.93;5.28;;;;;;;34.31;51.73;154686.97;5071028;28;20204;-65
2023/07/11 09:20:46;;;;;;;6.53;6.20;;;;;;;34.59;51.08;154756.31;5068532;28;20192;-63
2023/07/11 09:23:32;;;;;;;6.65;6.45;;;;;;;34.52;51.39;154739.63;5071931;28;20709;-62
2023/07/11 09:26:03;;;;;;;9.68;5.70;;;;;;;34.83;50.20;154818.06;5071184;28;20544;-60
2023/07/11 09:28:33;;;;;;;6.68;5.78;;;;;;;35.16;48.68;154901.63;5070930;28;20200;-60
2023/07/11 09:31:02;;;;;;;5.97;5.75;;;;;;;35.34;47.39;154946.63;5071327;28;20229;-61
2023/07/11 09:33:32;;;;;;;5.68;5.25;;;;;;;35.56;46.88;155004.44;5070836;28;20181;-61
2023/07/11 09:36:01;;;;;;;5.20;4.90;;;;;;;35.77;45.25;155055.97;5070922;28;20185;-59
2023/07/11 09:38:34;;;;;;;7.30;5.07;;;;;;;35.98;42.66;155109.97;5070421;28;20212;-60
2023/07/11 09:41:07;;;;;;;6.13;5.53;;;;;;;36.09;41.91;155139.53;5070703;28;20544;-60
2023/07/11 09:43:34;;;;;;;5.72;5.28;;;;;;;35.89;42.48;155086.81;5069725;28;20193;-59
2023/07/11 09:46:01;;;;;;;5.30;5.10;;;;;;;35.52;45.78;154994.16;5070978;28;20649;-60
2023/07/11 09:48:36;;;;;;;5.57;5.28;;;;;;;35.65;45.91;155027.66;5069162;28;20189;-66
2023/07/11 09:51:24;;;;;;;5.85;5.55;;;;;;;35.88;43.07;155085.53;5071099;28;20188;-65
2023/07/11 09:53:55;;;;;;;6.68;6.10;;;;;;;35.95;43.40;155103.50;5071687;28;20266;-66
2023/07/11 09:56:25;;;;;;;6.30;5.93;;;;;;;36.48;43.38;155237.31;5074791;28;20197;-67
2023/07/11 09:58:53;;;;;;;5.95;5.55;;;;;;;36.82;42.46;155323.53;5075444;28;20211;-68
2023/07/11 10:01:24;;;;;;;7.07;6.07;;;;;;;36.99;42.55;155367.28;5075179;28;20184;-66
2023/07/11 10:03:55;;;;;;;6.55;5.75;;;;;;;36.08;43.81;155135.66;5074909;28;20177;-68
2023/07/11 10:06:35;;;;;;;6.43;6.03;;;;;;;35.32;45.04;154941.47;5074931;28;20196;-66
2023/07/11 10:09:13;;;;;;;9.65;6.50;;;;;;;35.13;45.44;154895.19;5075907;28;20272;-69
2023/07/11 10:11:40;;;;;;;6.88;6.43;;;;;;;34.78;45.01;154806.50;5074957;28;20189;-64
2023/07/11 10:14:16;;;;;;;6.72;6.20;;;;;;;34.34;48.83;154693.38;5074375;28;20282;-64
2023/07/11 10:16:43;;;;;;;7.25;6.60;;;;;;;33.93;52.26;154590.56;5075215;28;20633;-65
2023/07/11 10:19:16;;;;;;;6.93;6.30;;;;;;;32.82;56.52;154308.00;5074150;28;20234;-65
2023/07/11 10:21:45;;;;;;;6.47;6.18;;;;;;;32.90;56.85;154328.53;5074738;28;20181;-65
2023/07/11 10:24:17;;;;;;;6.63;6.30;;;;;;;32.64;57.48;154261.78;5074628;28;20184;-66
2023/07/11 10:26:46;;;;;;;6.90;6.40;;;;;;;32.68;58.45;154272.03;5072852;28;20202;-65
2023/07/11 10:29:18;;;;;;;6.53;6.22;;;;;;;32.91;57.21;154331.09;5073372;28;20535;-63
2023/07/11 10:31:50;;;;;;;7.47;6.90;;;;;;;33.19;57.28;154400.44;5074119;28;20272;-62
2023/07/11 10:34:26;;;;;;;7.97;7.32;;;;;;;33.17;55.91;154395.34;5074174;28;20559;-58
2023/07/11 10:36:58;;;;;;;6.55;6.20;;;;;;;33.20;56.36;154403.03;5073988;28;20189;-58
2023/07/11 10:39:33;;;;;;;6.57;5.97;;;;;;;33.13;55.69;154385.03;5073925;28;20215;-56
2023/07/11 10:42:06;;;;;;;6.95;6.28;;;;;;;33.25;55.22;154415.88;5062286;28;20208;-57
2023/07/11 10:44:41;;;;;;;6.88;6.47;;;;;;;33.30;54.84;154430.00;5053702;28;20308;-57
2023/07/11 10:47:10;;;;;;;6.38;6.00;;;;;;;33.50;56.55;154480.06;5058988;28;20192;-58
2023/07/11 10:49:44;;;;;;;6.97;6.35;;;;;;;32.93;60.75;154336.22;5073209;28;20185;-57
2023/07/11 10:52:21;;;;;;;7.35;6.50;;;;;;;32.35;65.43;154187.31;5073412;28;20192;-56
2023/07/11 10:54:53;;;;;;;7.10;6.38;;;;;;;31.77;71.18;154039.72;5073645;28;20212;-57
2023/07/11 10:57:34;;;;;;;6.07;5.88;;;;;;;30.86;69.16;153810.06;5073260;28;20189;-57
2023/07/11 11:00:06;;;;;;;6.43;6.13;;;;;;;30.36;71.18;153683.09;5073572;28;20538;-57
2023/07/11 11:02:47;;;;;;;5.63;5.43;;;;;;;30.43;73.34;153701.03;5073461;28;20193;-58
2023/07/11 11:05:24;;;;;;;6.32;5.80;;;;;;;30.62;73.19;153748.53;5072996;28;20238;-59
2023/07/11 11:07:58;;;;;;;6.38;5.95;;;;;;;30.68;74.75;153765.16;5072931;28;20188;-58
2023/07/11 11:10:34;;;;;;;6.03;5.65;;;;;;;30.65;78.70;153756.22;5072822;28;20180;-57
2023/07/11 11:13:19;;;;;;;6.80;5.88;;;;;;;30.57;73.91;153735.69;5072644;28;20189;-58
2023/07/11 11:15:57;;;;;;;5.72;5.43;;;;;;;30.39;76.94;153690.78;5071645;28;20195;-57
2023/07/11 11:18:46;;;;;;;6.47;5.95;;;;;;;30.47;76.10;153710.09;5073033;28;20297;-57
2023/07/11 11:21:23;;;;;;;6.50;6.20;;;;;;;30.39;78.45;153692.06;5073223;28;20192;-58
2023/07/11 11:24:06;;;;;;;7.55;6.68;;;;;;;30.48;76.75;153713.91;5072657;28;20193;-57
2023/07/11 11:26:42;;;;;;;5.50;5.20;;;;;;;30.51;74.22;153720.34;5072903;28;20551;-58